Time;durP1;ratioP1;P1;durP2;ratioP2;P2;SDS_P1;SDS_P2;PMS_P1;PMS_P2;Temp;Humidity;BMP_temperature;BMP_pressure;BME280_temperature;BME280_humidity;BME280_pressure;Samples;Min_cycle;Max_cycle;Signal;HPM_P1;HPM_P2
2020/12/19 00:01:39;;;;;;;47.07;23.67;;;2.50;99.90;;;;;;4835481;28;20230;-75
2020/12/19 00:04:02;;;;;;;37.20;20.27;;;2.50;99.90;;;;;;4836815;28;20187;-75
2020/12/19 00:06:24;;;;;;;37.10;20.83;;;2.50;99.90;;;;;;4839342;28;20182;-77
2020/12/19 00:08:48;;;;;;;40.20;21.20;;;3.20;99.90;;;;;;4838862;28;20676;-76
2020/12/19 00:11:10;;;;;;;43.73;21.40;;;2.80;99.90;;;;;;4838817;28;20214;-76
2020/12/19 00:13:32;;;;;;;46.00;23.23;;;2.80;99.90;;;;;;4838065;28;20702;-76
2020/12/19 00:15:54;;;;;;;44.73;22.67;;;2.50;99.90;;;;;;4837257;28;20602;-76
2020/12/19 00:18:16;;;;;;;49.77;23.77;;;2.50;99.90;;;;;;4838530;28;20198;-76
2020/12/19 00:20:39;;;;;;;56.10;27.37;;;2.60;99.90;;;;;;4839768;28;20183;-76
2020/12/19 00:23:01;;;;;;;53.60;25.30;;;2.50;99.90;;;;;;4872015;28;20642;-76
2020/12/19 00:25:23;;;;;;;52.50;25.70;;;2.50;99.90;;;;;;4842015;28;20730;-76
2020/12/19 00:27:45;;;;;;;46.17;23.50;;;2.60;99.90;;;;;;4837824;28;20672;-76
2020/12/19 00:30:08;;;;;;;35.13;19.73;;;2.60;99.90;;;;;;4837068;28;20574;-75
2020/12/19 00:32:30;;;;;;;29.47;17.03;;;2.60;99.90;;;;;;4838531;28;20245;-76
2020/12/19 00:34:52;;;;;;;31.33;16.57;;;2.60;99.90;;;;;;4837915;28;20609;-76
2020/12/19 00:37:15;;;;;;;32.23;17.17;;;2.60;99.90;;;;;;4836993;28;20237;-76
2020/12/19 00:39:38;;;;;;;30.43;17.10;;;2.80;99.90;;;;;;4838054;28;20187;-77
2020/12/19 00:42:00;;;;;;;35.13;18.50;;;2.60;99.90;;;;;;4838992;28;20588;-76
2020/12/19 00:44:22;;;;;;;30.60;17.73;;;2.80;99.90;;;;;;4869838;28;20217;-76
2020/12/19 00:46:48;;;;;;;28.97;16.30;;;2.60;99.90;;;;;;4838094;28;20187;-76
2020/12/19 00:49:10;;;;;;;31.83;17.83;;;2.90;99.90;;;;;;4836175;28;20680;-76
2020/12/19 00:51:32;;;;;;;37.97;20.57;;;2.70;99.90;;;;;;4837989;28;20220;-76
2020/12/19 00:53:58;;;;;;;58.13;25.97;;;2.50;99.90;;;;;;4837538;28;20237;-76
2020/12/19 00:56:21;;;;;;;75.23;28.97;;;2.60;99.90;;;;;;4837754;28;20252;-76
2020/12/19 00:58:44;;;;;;;102.20;31.50;;;2.60;99.90;;;;;;4837706;28;20588;-76
2020/12/19 01:01:06;;;;;;;56.57;27.87;;;2.60;99.90;;;;;;4834058;28;20248;-76
2020/12/19 01:03:28;;;;;;;59.77;27.90;;;2.80;99.90;;;;;;4838212;28;20237;-76
2020/12/19 01:05:50;;;;;;;66.33;25.87;;;2.50;99.90;;;;;;4837807;28;20592;-75
2020/12/19 01:08:12;;;;;;;57.50;26.30;;;2.60;99.90;;;;;;4837979;28;20252;-75
2020/12/19 01:10:35;;;;;;;66.57;26.13;;;2.50;99.90;;;;;;4836652;28;20257;-75
2020/12/19 01:12:57;;;;;;;57.53;25.00;;;2.60;99.90;;;;;;4838119;28;20194;-75
2020/12/19 01:15:19;;;;;;;77.90;28.37;;;2.90;99.90;;;;;;4837671;28;20194;-76
2020/12/19 01:17:41;;;;;;;63.67;26.63;;;2.60;99.90;;;;;;4836217;28;20186;-77
2020/12/19 01:20:03;;;;;;;60.57;26.73;;;2.60;99.90;;;;;;4837505;28;20195;-76
2020/12/19 01:22:25;;;;;;;76.53;27.40;;;2.80;99.90;;;;;;4836587;28;20729;-75
2020/12/19 01:24:47;;;;;;;58.37;24.93;;;2.60;99.90;;;;;;4837332;28;20187;-76
2020/12/19 01:27:10;;;;;;;78.87;27.63;;;2.80;99.90;;;;;;4837357;28;20261;-77
2020/12/19 01:29:32;;;;;;;55.63;25.43;;;3.00;99.90;;;;;;4837207;28;20183;-76
2020/12/19 01:31:54;;;;;;;56.10;23.93;;;2.70;99.90;;;;;;4835946;28;20249;-76
2020/12/19 01:34:16;;;;;;;53.87;23.00;;;2.60;99.90;;;;;;4836915;28;20265;-76
2020/12/19 01:36:39;;;;;;;45.47;23.47;;;2.50;99.70;;;;;;4837136;28;20241;-76
2020/12/19 01:39:01;;;;;;;54.17;23.87;;;2.50;99.90;;;;;;4837358;28;20198;-75
2020/12/19 01:41:23;;;;;;;40.07;20.77;;;4.20;99.90;;;;;;4852138;28;20458;-77
2020/12/19 01:43:48;;;;;;;41.53;19.43;;;2.60;99.90;;;;;;4837451;28;20611;-76
2020/12/19 01:46:10;;;;;;;47.47;21.27;;;3.60;99.90;;;;;;4836179;28;20237;-76
2020/12/19 01:48:32;;;;;;;41.67;20.27;;;2.50;99.90;;;;;;4837184;28;20183;-75
2020/12/19 01:50:54;;;;;;;33.53;16.30;;;2.50;99.90;;;;;;4836647;28;20292;-77
2020/12/19 01:53:17;;;;;;;28.87;15.23;;;2.50;99.90;;;;;;4837134;28;20735;-75
2020/12/19 01:55:39;;;;;;;26.70;14.80;;;2.50;99.40;;;;;;4835820;28;20183;-76
2020/12/19 01:58:02;;;;;;;39.40;17.83;;;2.60;98.90;;;;;;4837043;28;20237;-77
2020/12/19 02:00:25;;;;;;;43.10;18.70;;;2.80;99.40;;;;;;4836153;28;20191;-76
2020/12/19 02:02:47;;;;;;;54.00;20.13;;;2.40;99.50;;;;;;4834652;28;20226;-76
2020/12/19 02:05:09;;;;;;;48.70;18.97;;;2.50;99.80;;;;;;4836816;28;20241;-77
2020/12/19 02:07:31;;;;;;;39.50;18.73;;;2.40;99.90;;;;;;4835638;28;20229;-76
2020/12/19 02:09:54;;;;;;;43.23;19.63;;;2.50;99.90;;;;;;4836508;28;20600;-76
2020/12/19 02:12:16;;;;;;;44.50;19.17;;;2.40;99.90;;;;;;4837265;28;20453;-76
2020/12/19 02:14:39;;;;;;;40.57;16.87;;;2.50;99.90;;;;;;4835589;28;20244;-76
2020/12/19 02:17:03;;;;;;;27.20;14.73;;;2.30;98.80;;;;;;4836653;28;20199;-75
2020/12/19 02:19:26;;;;;;;32.83;15.67;;;2.40;99.00;;;;;;4835734;28;20194;-75
2020/12/19 02:21:48;;;;;;;34.23;15.43;;;2.30;99.10;;;;;;4836982;28;20195;-77
2020/12/19 02:24:11;;;;;;;36.50;15.53;;;2.30;98.40;;;;;;4836715;28;20194;-76
2020/12/19 02:26:33;;;;;;;34.93;14.63;;;3.30;98.30;;;;;;4836009;28;20715;-76
2020/12/19 02:28:55;;;;;;;49.50;16.60;;;2.40;98.10;;;;;;4837072;28;20245;-76
2020/12/19 02:31:17;;;;;;;58.53;20.53;;;2.90;99.00;;;;;;4837020;28;20218;-75
2020/12/19 02:33:40;;;;;;;47.73;17.13;;;2.30;99.10;;;;;;4835519;28;20615;-75
2020/12/19 02:36:02;;;;;;;78.13;19.67;;;2.20;99.50;;;;;;4837684;28;20252;-75
2020/12/19 02:38:24;;;;;;;65.07;19.53;;;3.00;99.90;;;;;;4840182;28;20190;-75
2020/12/19 02:40:47;;;;;;;52.87;17.57;;;2.10;99.90;;;;;;4840104;28;20191;-75
2020/12/19 02:43:09;;;;;;;79.33;18.90;;;2.10;99.90;;;;;;4840376;28;20190;-75
2020/12/19 02:45:31;;;;;;;65.57;19.27;;;2.20;99.90;;;;;;4840503;28;20187;-75
2020/12/19 02:47:53;;;;;;;109.63;22.47;;;3.20;99.90;;;;;;4840785;28;20730;-75
2020/12/19 02:50:15;;;;;;;97.07;24.80;;;2.10;99.90;;;;;;4838674;28;20281;-76
2020/12/19 02:52:37;;;;;;;98.07;26.17;;;2.10;99.90;;;;;;4840035;28;20241;-76
2020/12/19 02:54:59;;;;;;;82.87;29.57;;;2.80;99.90;;;;;;4849820;28;20625;-76
2020/12/19 02:57:22;;;;;;;65.57;25.07;;;2.10;99.90;;;;;;4839650;28;20265;-76
2020/12/19 02:59:44;;;;;;;52.00;21.50;;;2.10;99.90;;;;;;4839822;28;20183;-76
2020/12/19 03:02:06;;;;;;;80.03;23.77;;;3.20;99.90;;;;;;4836297;28;20234;-77
2020/12/19 03:04:28;;;;;;;81.93;22.87;;;2.00;99.90;;;;;;4839733;28;20234;-76
2020/12/19 03:06:50;;;;;;;76.00;23.30;;;2.10;99.90;;;;;;4839523;28;20179;-76
2020/12/19 03:09:13;;;;;;;67.73;23.10;;;2.70;99.90;;;;;;4839713;28;20256;-76
2020/12/19 03:11:35;;;;;;;64.53;20.57;;;3.00;99.90;;;;;;4840028;28;20610;-76
2020/12/19 03:13:58;;;;;;;77.17;19.83;;;2.00;99.90;;;;;;4840590;28;20532;-76
2020/12/19 03:16:20;;;;;;;96.57;23.17;;;2.10;99.90;;;;;;4839926;28;20190;-76
2020/12/19 03:18:42;;;;;;;76.00;19.37;;;2.10;99.90;;;;;;4839653;28;20645;-76
2020/12/19 03:21:04;;;;;;;106.57;25.80;;;2.10;99.90;;;;;;4839801;28;20187;-75
2020/12/19 03:23:26;;;;;;;41.97;20.43;;;2.00;99.90;;;;;;4838766;28;20641;-76
2020/12/19 03:25:50;;;;;;;63.87;19.97;;;3.00;99.90;;;;;;4839623;28;20534;-76
2020/12/19 03:28:12;;;;;;;70.87;22.20;;;2.00;99.90;;;;;;4839014;28;20214;-76
2020/12/19 03:30:35;;;;;;;91.10;24.77;;;2.80;99.90;;;;;;4833407;28;20207;-75
2020/12/19 03:32:57;;;;;;;43.57;16.93;;;2.00;99.90;;;;;;4838140;28;20658;-76
2020/12/19 03:35:19;;;;;;;55.47;20.77;;;2.00;99.90;;;;;;4839154;28;20187;-76
2020/12/19 03:37:41;;;;;;;70.97;20.27;;;2.00;99.90;;;;;;4839462;28;20241;-76
2020/12/19 03:40:04;;;;;;;96.40;21.03;;;2.10;99.90;;;;;;4847005;28;20651;-74
2020/12/19 03:42:26;;;;;;;77.93;15.70;;;1.90;99.90;;;;;;4843221;28;20601;-75
2020/12/19 03:44:48;;;;;;;58.83;15.43;;;1.90;99.90;;;;;;4843230;28;20447;-77
2020/12/19 03:47:11;;;;;;;73.77;16.70;;;1.70;99.90;;;;;;4838704;28;20191;-76
2020/12/19 03:49:33;;;;;;;77.87;19.83;;;1.80;99.90;;;;;;4835785;28;20269;-76
2020/12/19 03:51:55;;;;;;;70.87;16.87;;;1.80;99.90;;;;;;4839519;28;20253;-76
2020/12/19 03:54:17;;;;;;;54.70;16.13;;;1.80;99.90;;;;;;4837537;28;20198;-76
2020/12/19 03:56:39;;;;;;;124.27;21.43;;;2.00;99.90;;;;;;4838809;28;20182;-76
2020/12/19 03:59:01;;;;;;;76.53;17.07;;;1.70;99.90;;;;;;4838804;28;20187;-76
2020/12/19 04:01:23;;;;;;;82.07;17.53;;;1.80;99.90;;;;;;4835110;28;21520;-76
2020/12/19 04:03:46;;;;;;;42.93;16.27;;;1.70;99.90;;;;;;4838745;28;20226;-76
2020/12/19 04:06:08;;;;;;;55.43;17.40;;;1.70;99.90;;;;;;4838619;28;20257;-76
2020/12/19 04:08:30;;;;;;;66.37;15.20;;;1.70;99.90;;;;;;4839156;28;20609;-77
2020/12/19 04:10:52;;;;;;;69.37;14.80;;;1.70;99.90;;;;;;4838804;28;20252;-77
2020/12/19 04:13:14;;;;;;;65.67;15.33;;;1.60;99.90;;;;;;4838661;28;20616;-76
2020/12/19 04:15:36;;;;;;;83.43;15.27;;;1.70;99.90;;;;;;4838039;28;20186;-76
2020/12/19 04:17:58;;;;;;;83.20;15.47;;;1.60;99.90;;;;;;4838719;28;21184;-76
2020/12/19 04:20:22;;;;;;;80.33;15.10;;;1.70;99.90;;;;;;4838125;28;20639;-76
2020/12/19 04:22:44;;;;;;;46.00;14.87;;;1.40;99.90;;;;;;4837316;28;20694;-77
2020/12/19 04:25:06;;;;;;;83.87;17.53;;;1.40;99.90;;;;;;4838063;28;21014;-77
2020/12/19 04:27:28;;;;;;;88.27;16.53;;;1.60;99.90;;;;;;4838197;28;20206;-76
2020/12/19 04:29:50;;;;;;;110.57;17.30;;;1.60;99.90;;;;;;4837821;28;20186;-77
2020/12/19 04:32:12;;;;;;;92.00;18.10;;;1.30;99.90;;;;;;4837980;28;21069;-76
2020/12/19 04:34:34;;;;;;;104.53;18.37;;;1.30;99.90;;;;;;4838101;28;20194;-76
2020/12/19 04:36:59;;;;;;;96.50;17.50;;;1.40;99.90;;;;;;4837970;28;20632;-75
2020/12/19 04:39:21;;;;;;;72.80;18.17;;;1.40;99.90;;;;;;4838146;28;20198;-76
2020/12/19 04:41:43;;;;;;;67.67;15.77;;;1.40;99.90;;;;;;4837959;28;20213;-76
2020/12/19 04:44:06;;;;;;;80.17;16.00;;;2.10;99.90;;;;;;4837708;28;20593;-76
2020/12/19 04:46:29;;;;;;;60.60;16.17;;;1.40;99.90;;;;;;4837144;28;20199;-76
2020/12/19 04:48:51;;;;;;;92.27;16.70;;;1.40;99.90;;;;;;4837422;28;20390;-76
2020/12/19 04:51:14;;;;;;;65.13;16.17;;;1.40;99.90;;;;;;4837092;28;20214;-76
2020/12/19 04:53:37;;;;;;;46.33;15.50;;;1.40;99.90;;;;;;4838733;28;20183;-76
2020/12/19 04:56:00;;;;;;;36.33;14.97;;;1.40;99.90;;;;;;4838289;28;21176;-76
2020/12/19 04:58:22;;;;;;;49.63;15.17;;;1.40;99.90;;;;;;4837299;28;20633;-76
2020/12/19 05:00:45;;;;;;;34.63;14.40;;;1.50;99.90;;;;;;4834595;28;20672;-76
2020/12/19 05:03:07;;;;;;;40.87;15.27;;;1.50;99.90;;;;;;4837919;28;20195;-76
2020/12/19 05:05:29;;;;;;;35.17;14.17;;;1.50;99.90;;;;;;4838203;28;20187;-76
2020/12/19 05:07:51;;;;;;;45.90;17.50;;;1.50;99.90;;;;;;4837768;28;20616;-76
2020/12/19 05:10:15;;;;;;;41.63;15.77;;;1.50;99.90;;;;;;4837755;28;20195;-77
2020/12/19 05:12:37;;;;;;;29.77;12.77;;;2.60;99.90;;;;;;4831808;28;20207;-76
2020/12/19 05:14:59;;;;;;;29.00;13.23;;;1.60;99.90;;;;;;4837890;28;20198;-75
2020/12/19 05:17:22;;;;;;;28.47;13.83;;;1.60;99.90;;;;;;4837927;28;20199;-76
2020/12/19 05:19:44;;;;;;;30.77;13.67;;;1.60;99.90;;;;;;4836312;28;20187;-76
2020/12/19 05:22:06;;;;;;;31.27;12.70;;;1.60;99.90;;;;;;4837505;28;20190;-76
2020/12/19 05:24:29;;;;;;;39.63;13.97;;;1.60;99.90;;;;;;4837741;28;20248;-76
2020/12/19 05:26:53;;;;;;;34.63;11.97;;;1.60;99.90;;;;;;4835796;28;20280;-76
2020/12/19 05:29:15;;;;;;;33.77;13.30;;;1.60;99.90;;;;;;4837184;28;20666;-76
2020/12/19 05:31:37;;;;;;;37.90;14.00;;;1.60;99.90;;;;;;4837544;28;20245;-76
2020/12/19 05:34:00;;;;;;;36.43;15.20;;;2.20;99.90;;;;;;4834438;28;20225;-76
2020/12/19 05:36:23;;;;;;;40.93;15.80;;;1.60;99.90;;;;;;4837464;28;20247;-76
2020/12/19 05:38:45;;;;;;;52.73;16.57;;;1.60;99.90;;;;;;4837278;28;20237;-76
2020/12/19 05:41:11;;;;;;;59.90;16.33;;;1.60;99.90;;;;;;4850397;28;20199;-76
2020/12/19 05:43:34;;;;;;;57.27;15.97;;;1.60;99.90;;;;;;4837577;28;20253;-76
2020/12/19 05:45:56;;;;;;;74.13;19.07;;;1.60;99.90;;;;;;4837032;28;20644;-76
2020/12/19 05:48:18;;;;;;;40.97;15.97;;;2.00;99.90;;;;;;4836752;28;20598;-76
2020/12/19 05:50:40;;;;;;;52.47;16.50;;;2.40;99.90;;;;;;4835311;28;20215;-76
2020/12/19 05:53:03;;;;;;;72.00;17.47;;;1.60;99.90;;;;;;4837148;28;20199;-76
2020/12/19 05:55:29;;;;;;;77.23;19.30;;;4.00;99.90;;;;;;4837708;28;20248;-76
2020/12/19 05:57:51;;;;;;;48.13;15.47;;;1.70;99.90;;;;;;4837571;28;20248;-75
2020/12/19 06:00:16;;;;;;;39.43;13.80;;;1.90;99.90;;;;;;4835818;28;20198;-76
2020/12/19 06:02:39;;;;;;;44.97;13.70;;;1.60;99.90;;;;;;4832616;28;20292;-76
2020/12/19 06:05:02;;;;;;;41.73;14.53;;;2.40;99.90;;;;;;4836918;28;20190;-76
2020/12/19 06:07:24;;;;;;;39.50;14.43;;;2.70;99.90;;;;;;4836533;28;20249;-76
2020/12/19 06:09:46;;;;;;;36.07;13.93;;;2.80;99.90;;;;;;4836731;28;20187;-76
2020/12/19 06:12:15;;;;;;;38.20;14.37;;;1.70;99.90;;;;;;4837836;28;20455;-76
2020/12/19 06:14:42;;;;;;;33.63;13.67;;;2.70;99.90;;;;;;4839462;28;20620;-76
2020/12/19 06:17:16;;;;;;;57.63;22.83;;;1.80;99.90;;;;;;4840614;28;20190;-76
2020/12/19 06:19:43;;;;;;;55.67;22.53;;;1.90;99.90;;;;;;4840310;28;20174;-76
2020/12/19 06:22:05;;;;;;;33.07;14.93;;;1.80;99.90;;;;;;4840729;28;20651;-76
2020/12/19 06:24:41;;;;;;;40.40;14.87;;;2.10;99.90;;;;;;4839283;28;20182;-76
2020/12/19 06:27:03;;;;;;;31.87;15.20;;;1.90;99.90;;;;;;4840682;28;20261;-76
2020/12/19 06:29:35;;;;;;;34.67;14.80;;;1.80;99.90;;;;;;4845359;28;20210;-76
2020/12/19 06:31:59;;;;;;;44.53;15.57;;;1.80;99.90;;;;;;4840916;28;20206;-76
2020/12/19 06:34:22;;;;;;;37.70;13.53;;;2.30;99.90;;;;;;4840520;28;20198;-76
2020/12/19 06:36:48;;;;;;;33.20;14.07;;;2.00;99.90;;;;;;4840141;28;20606;-76
2020/12/19 06:39:11;;;;;;;33.47;14.17;;;1.80;99.90;;;;;;4836170;28;20238;-76
2020/12/19 06:41:44;;;;;;;29.63;14.10;;;1.80;99.90;;;;;;4843420;28;20236;-76
2020/12/19 06:44:07;;;;;;;24.57;12.83;;;1.80;99.90;;;;;;4872329;28;20263;-76
2020/12/19 06:46:31;;;;;;;29.70;13.37;;;1.80;99.90;;;;;;4840254;28;20191;-76
2020/12/19 06:48:53;;;;;;;30.20;13.93;;;2.30;99.90;;;;;;4836092;28;20248;-76
2020/12/19 06:51:16;;;;;;;25.57;14.10;;;2.20;99.90;;;;;;4838548;28;20179;-76
2020/12/19 06:53:38;;;;;;;22.77;11.33;;;1.80;99.90;;;;;;4839846;28;20240;-76
2020/12/19 06:56:00;;;;;;;27.90;11.53;;;1.90;99.90;;;;;;4839638;28;20229;-76
2020/12/19 06:58:33;;;;;;;27.50;11.37;;;1.90;99.90;;;;;;4836418;28;20190;-76
2020/12/19 07:00:55;;;;;;;26.23;12.77;;;1.90;99.90;;;;;;4833739;28;22984;-76
2020/12/19 07:03:35;;;;;;;21.23;12.23;;;2.00;99.90;;;;;;4839997;28;20195;-77
2020/12/19 07:06:12;;;;;;;21.63;10.27;;;1.90;99.90;;;;;;4839933;28;20191;-76
2020/12/19 07:08:36;;;;;;;18.80;10.30;;;1.90;99.90;;;;;;4833827;28;20183;-76
2020/12/19 07:10:58;;;;;;;17.33;10.80;;;2.00;99.90;;;;;;4839149;28;20202;-76
2020/12/19 07:13:20;;;;;;;22.90;11.97;;;1.90;99.90;;;;;;4839831;28;20264;-76
2020/12/19 07:15:43;;;;;;;24.07;10.93;;;1.90;99.90;;;;;;4839470;28;20182;-76
2020/12/19 07:18:05;;;;;;;28.13;12.17;;;1.90;99.90;;;;;;4839335;28;20257;-76
2020/12/19 07:20:28;;;;;;;29.83;13.47;;;2.80;99.90;;;;;;4838192;28;20230;-76
2020/12/19 07:22:50;;;;;;;31.50;14.47;;;1.90;99.90;;;;;;4838698;28;20237;-76
2020/12/19 07:25:13;;;;;;;27.47;14.13;;;2.00;99.90;;;;;;4833253;28;20594;-76
2020/12/19 07:27:35;;;;;;;39.87;16.50;;;2.00;99.90;;;;;;4839420;28;20253;-76
2020/12/19 07:30:01;;;;;;;31.77;13.97;;;2.00;99.90;;;;;;4837642;28;20285;-76
2020/12/19 07:32:23;;;;;;;25.57;13.80;;;2.00;99.90;;;;;;4839485;28;20576;-76
2020/12/19 07:34:45;;;;;;;32.30;14.13;;;2.00;99.90;;;;;;4838959;28;20191;-76
2020/12/19 07:37:10;;;;;;;30.83;13.57;;;2.00;98.90;;;;;;4836081;28;20190;-76
2020/12/19 07:39:32;;;;;;;38.43;16.13;;;1.90;98.40;;;;;;4839673;28;20253;-76
2020/12/19 07:42:06;;;;;;;30.60;14.40;;;2.00;98.80;;;;;;4840001;28;20241;-76
2020/12/19 07:44:28;;;;;;;38.17;15.60;;;2.00;98.90;;;;;;4838961;28;20618;-76
2020/12/19 07:46:53;;;;;;;38.13;15.27;;;2.30;99.20;;;;;;4839940;28;20192;-76
2020/12/19 07:49:33;;;;;;;39.07;15.70;;;2.10;98.30;;;;;;4839877;28;20218;-76
2020/12/19 07:52:06;;;;;;;42.87;15.10;;;2.10;98.30;;;;;;4839749;28;20206;-76
2020/12/19 07:54:28;;;;;;;36.43;14.37;;;2.10;98.30;;;;;;4840017;28;20576;-76
2020/12/19 07:56:50;;;;;;;35.47;15.10;;;2.10;98.00;;;;;;4839624;28;20237;-76
2020/12/19 07:59:16;;;;;;;35.53;15.97;;;2.20;96.90;;;;;;4839878;28;20245;-76
2020/12/19 08:01:39;;;;;;;41.13;19.47;;;2.20;95.80;;;;;;4836270;28;20284;-76
2020/12/19 08:04:01;;;;;;;46.70;18.87;;;2.30;94.20;;;;;;4839057;28;20206;-76
2020/12/19 08:06:23;;;;;;;48.60;18.90;;;2.20;93.90;;;;;;4839309;28;20187;-76
2020/12/19 08:08:57;;;;;;;35.00;16.00;;;2.20;86.40;;;;;;4839083;28;20182;-76
2020/12/19 08:11:19;;;;;;;40.33;17.27;;;2.20;86.00;;;;;;4837198;28;20241;-76
2020/12/19 08:13:41;;;;;;;39.47;16.80;;;2.30;87.20;;;;;;4822123;28;20253;-76
2020/12/19 08:16:04;;;;;;;40.17;19.10;;;2.20;90.40;;;;;;4838428;28;20247;-76
2020/12/19 08:18:29;;;;;;;42.00;18.23;;;2.20;90.60;;;;;;4838003;28;20592;-76
2020/12/19 08:20:52;;;;;;;42.03;18.47;;;2.30;88.90;;;;;;4838517;28;20596;-76
2020/12/19 08:23:15;;;;;;;39.53;17.40;;;2.20;89.20;;;;;;4838944;28;20187;-78
2020/12/19 08:25:37;;;;;;;37.20;18.27;;;2.30;89.70;;;;;;4839470;28;20203;-76
2020/12/19 08:28:00;;;;;;;44.43;18.77;;;2.30;82.10;;;;;;4837466;28;20200;-75
2020/12/19 08:30:28;;;;;;;47.40;18.47;;;2.30;81.60;;;;;;4845160;28;20581;-76
2020/12/19 08:32:55;;;;;;;53.93;19.30;;;2.30;77.40;;;;;;4833098;28;20241;-76
2020/12/19 08:35:19;;;;;;;42.10;20.47;;;2.60;80.20;;;;;;4837470;28;20798;-76
2020/12/19 08:37:41;;;;;;;42.10;22.33;;;2.30;82.10;;;;;;4837914;28;20194;-76
2020/12/19 08:40:06;;;;;;;53.10;23.87;;;2.40;85.20;;;;;;4837924;28;20191;-75
2020/12/19 08:42:30;;;;;;;44.60;19.13;;;2.40;85.40;;;;;;4832751;28;20229;-76
2020/12/19 08:44:52;;;;;;;40.53;20.13;;;2.50;83.90;;;;;;4837841;28;20240;-76
2020/12/19 08:47:14;;;;;;;45.30;20.00;;;2.50;83.20;;;;;;4836860;28;20183;-76
2020/12/19 08:49:37;;;;;;;37.53;18.33;;;2.50;80.50;;;;;;4841100;28;20633;-76
2020/12/19 08:52:00;;;;;;;35.83;18.10;;;2.60;81.90;;;;;;4837694;28;20618;-76
2020/12/19 08:54:22;;;;;;;34.90;17.67;;;2.60;82.70;;;;;;4838028;28;20195;-76
2020/12/19 08:56:44;;;;;;;38.90;16.93;;;2.70;77.50;;;;;;4838187;28;20182;-76
2020/12/19 08:59:06;;;;;;;39.67;18.57;;;2.70;73.20;;;;;;4838112;28;20245;-76
2020/12/19 09:01:31;;;;;;;37.83;18.00;;;2.70;70.70;;;;;;4834132;28;20269;-76
2020/12/19 09:03:55;;;;;;;37.80;18.63;;;2.70;71.90;;;;;;4838037;28;20699;-76
2020/12/19 09:06:18;;;;;;;33.13;16.83;;;2.80;73.10;;;;;;4837839;28;20548;-76
2020/12/19 09:08:41;;;;;;;34.87;17.10;;;2.80;69.30;;;;;;4836298;28;20186;-76
2020/12/19 09:11:04;;;;;;;50.17;19.13;;;2.90;68.40;;;;;;4837914;28;20195;-76
2020/12/19 09:13:26;;;;;;;49.77;21.00;;;2.90;64.80;;;;;;4836772;28;20477;-76
2020/12/19 09:15:49;;;;;;;33.47;16.40;;;2.90;52.20;;;;;;4838152;28;20241;-76
2020/12/19 09:18:13;;;;;;;31.63;16.17;;;3.00;45.80;;;;;;4835934;28;20750;-75
2020/12/19 09:20:35;;;;;;;43.33;17.43;;;3.00;48.00;;;;;;4833948;28;20211;-76
2020/12/19 09:23:05;;;;;;;40.33;17.83;;;3.00;46.10;;;;;;4835714;28;20247;-76
2020/12/19 09:25:27;;;;;;;35.33;18.17;;;3.00;46.70;;;;;;4834211;28;20248;-75
2020/12/19 09:27:49;;;;;;;39.57;15.50;;;2.90;44.00;;;;;;4836006;28;20206;-77
2020/12/19 09:30:11;;;;;;;35.03;16.03;;;2.90;41.00;;;;;;4836842;28;20190;-76
2020/12/19 09:32:33;;;;;;;32.20;16.10;;;3.00;34.20;;;;;;4837259;28;20265;-76
2020/12/19 09:34:55;;;;;;;32.97;16.73;;;3.00;38.90;;;;;;4836169;28;20256;-76
2020/12/19 09:37:18;;;;;;;36.20;16.50;;;3.00;40.10;;;;;;4837147;28;20530;-75
2020/12/19 09:39:41;;;;;;;39.43;16.33;;;3.00;40.50;;;;;;4837074;28;20264;-75
2020/12/19 09:42:03;;;;;;;31.17;15.47;;;3.10;46.20;;;;;;4835647;28;20194;-75
2020/12/19 09:44:25;;;;;;;31.87;16.40;;;3.10;42.90;;;;;;4835189;28;20720;-76
2020/12/19 09:46:47;;;;;;;32.70;17.90;;;3.10;43.00;;;;;;4835281;28;20237;-76
2020/12/19 09:49:09;;;;;;;26.60;14.27;;;3.20;47.40;;;;;;4840949;28;20226;-76
2020/12/19 09:51:31;;;;;;;34.77;15.87;;;3.50;56.50;;;;;;4841542;28;20232;-76
2020/12/19 09:53:53;;;;;;;28.53;15.77;;;3.70;55.40;;;;;;4836444;28;20605;-76
2020/12/19 09:56:16;;;;;;;25.63;14.43;;;3.70;54.90;;;;;;4836283;28;20190;-76
2020/12/19 09:58:39;;;;;;;37.13;15.47;;;3.80;47.30;;;;;;4836733;28;20253;-76
2020/12/19 10:01:01;;;;;;;36.00;19.20;;;3.80;28.90;;;;;;4834181;28;20621;-76
2020/12/19 10:03:23;;;;;;;31.73;16.30;;;3.70;9.60;;;;;;4836579;28;20187;-76
2020/12/19 10:05:45;;;;;;;25.27;14.43;;;3.60;1.00;;;;;;4835478;28;20563;-75
2020/12/19 10:08:07;;;;;;;29.90;15.37;;;3.50;1.50;;;;;;4836317;28;20182;-76
2020/12/19 10:10:29;;;;;;;26.40;15.30;;;3.60;10.50;;;;;;4835551;28;20241;-75
2020/12/19 10:12:52;;;;;;;32.13;15.37;;;3.60;18.70;;;;;;4836151;28;20214;-75
2020/12/19 10:15:16;;;;;;;28.77;15.83;;;4.40;25.60;;;;;;4835820;28;20202;-74
2020/12/19 10:17:38;;;;;;;29.27;15.37;;;3.50;27.50;;;;;;4835579;28;20190;-74
2020/12/19 10:20:00;;;;;;;27.60;15.90;;;3.60;24.90;;;;;;4835388;28;20268;-76
2020/12/19 10:22:23;;;;;;;30.03;16.47;;;3.60;22.70;;;;;;4836482;28;20206;-75
2020/12/19 10:24:45;;;;;;;25.73;14.07;;;3.70;23.40;;;;;;4836465;28;20241;-76
2020/12/19 10:27:08;;;;;;;28.43;16.23;;;4.60;19.50;;;;;;4834325;28;20716;-75
2020/12/19 10:29:31;;;;;;;25.30;14.50;;;3.70;15.10;;;;;;4836700;28;20191;-76
2020/12/19 10:31:53;;;;;;;35.13;18.77;;;3.70;13.80;;;;;;4836063;28;20202;-76
2020/12/19 10:34:15;;;;;;;27.53;15.33;;;4.70;14.20;;;;;;4835225;28;20228;-75
2020/12/19 10:36:37;;;;;;;34.53;17.17;;;3.70;9.20;;;;;;4836089;28;20252;-75
2020/12/19 10:39:00;;;;;;;30.07;15.97;;;3.70;14.30;;;;;;4833234;28;20198;-74
2020/12/19 10:41:22;;;;;;;28.83;15.23;;;3.60;9.70;;;;;;4836532;28;20730;-75
2020/12/19 10:43:44;;;;;;;31.43;17.13;;;3.70;13.70;;;;;;4835952;28;20186;-75
2020/12/19 10:46:07;;;;;;;31.50;15.90;;;3.70;17.40;;;;;;4836780;28;20233;-75
2020/12/19 10:48:29;;;;;;;43.53;22.40;;;3.70;18.60;;;;;;4835220;28;20183;-76
2020/12/19 10:50:51;;;;;;;44.47;24.13;;;3.80;18.10;;;;;;4836311;28;20306;-76
2020/12/19 10:53:13;;;;;;;37.10;18.87;;;3.80;17.60;;;;;;4836685;28;20218;-75
2020/12/19 10:55:37;;;;;;;37.47;18.53;;;3.90;16.80;;;;;;4836404;28;20187;-75
2020/12/19 10:57:59;;;;;;;43.87;21.80;;;4.10;18.60;;;;;;4840124;28;20273;-75
2020/12/19 11:00:21;;;;;;;37.73;18.70;;;3.90;21.60;;;;;;4841522;28;20234;-76
2020/12/19 11:02:45;;;;;;;39.57;20.63;;;4.00;20.80;;;;;;4820880;28;20235;-76
2020/12/19 11:05:07;;;;;;;42.47;20.73;;;3.90;19.90;;;;;;4821871;28;20183;-76
2020/12/19 11:07:29;;;;;;;34.77;18.57;;;4.00;23.60;;;;;;4843660;28;20216;-75
2020/12/19 11:09:51;;;;;;;39.83;19.03;;;4.00;23.80;;;;;;4832458;28;20191;-75
2020/12/19 11:12:13;;;;;;;30.50;16.10;;;4.00;24.40;;;;;;4830962;28;20298;-76
2020/12/19 11:14:35;;;;;;;37.60;18.00;;;4.00;16.50;;;;;;4828605;28;20186;-75
2020/12/19 11:16:58;;;;;;;34.57;16.77;;;4.10;14.40;;;;;;4832157;28;20195;-75
2020/12/19 11:19:21;;;;;;;34.53;17.73;;;4.10;16.80;;;;;;4825493;28;20249;-76
2020/12/19 11:21:43;;;;;;;34.60;18.00;;;4.20;16.50;;;;;;4821460;28;20196;-76
2020/12/19 11:24:05;;;;;;;28.33;15.93;;;4.10;21.00;;;;;;4821505;28;20578;-75
2020/12/19 11:26:28;;;;;;;31.60;15.47;;;4.20;8.70;;;;;;4821376;28;20669;-75
2020/12/19 11:28:52;;;;;;;32.70;17.67;;;5.10;9.10;;;;;;4821486;28;20522;-75
2020/12/19 11:31:14;;;;;;;32.53;16.90;;;4.20;16.80;;;;;;4821504;28;20187;-75
2020/12/19 11:33:36;;;;;;;31.50;17.93;;;4.20;17.80;;;;;;4821325;28;20703;-75
2020/12/19 11:36:00;;;;;;;25.17;14.17;;;4.30;21.80;;;;;;4821400;28;20246;-75
2020/12/19 11:38:22;;;;;;;31.50;17.17;;;4.20;14.00;;;;;;4822465;28;20219;-75
2020/12/19 11:40:44;;;;;;;36.40;20.77;;;4.20;10.40;;;;;;4821110;28;20657;-75
2020/12/19 11:43:07;;;;;;;29.77;16.30;;;4.20;11.50;;;;;;4821484;28;20230;-75
2020/12/19 11:45:29;;;;;;;29.97;15.43;;;4.30;15.80;;;;;;4821067;28;20187;-75
2020/12/19 11:47:51;;;;;;;27.13;14.47;;;4.30;14.10;;;;;;4821084;28;20203;-75
2020/12/19 11:50:13;;;;;;;30.53;15.20;;;4.30;17.80;;;;;;4821021;28;20220;-75
2020/12/19 11:52:36;;;;;;;31.83;15.90;;;4.40;21.10;;;;;;4821131;28;20188;-75
2020/12/19 11:54:58;;;;;;;31.17;16.00;;;4.50;21.70;;;;;;4821170;28;20199;-75
2020/12/19 11:57:20;;;;;;;24.07;15.10;;;4.50;14.20;;;;;;4835988;28;20241;-75
2020/12/19 11:59:42;;;;;;;27.93;14.97;;;4.60;12.10;;;;;;4820857;28;20238;-75
2020/12/19 12:02:04;;;;;;;28.30;15.67;;;4.50;11.00;;;;;;4829627;28;20238;-76
2020/12/19 12:04:26;;;;;;;26.97;16.17;;;4.60;1.40;;;;;;4839895;28;20609;-75
2020/12/19 12:06:48;;;;;;;30.47;16.77;;;5.10;3.90;;;;;;4839521;28;20183;-76
2020/12/19 12:09:12;;;;;;;27.90;13.90;;;4.70;9.90;;;;;;4839957;28;20191;-76
2020/12/19 12:11:34;;;;;;;24.23;13.93;;;4.60;14.00;;;;;;4839726;28;20237;-75
2020/12/19 12:13:56;;;;;;;25.13;15.20;;;4.60;13.30;;;;;;4839470;28;20217;-75
2020/12/19 12:16:19;;;;;;;20.23;13.23;;;4.70;12.80;;;;;;4838378;28;20715;-75